Time;durP1;ratioP1;P1;durP2;ratioP2;P2;SDS_P1;SDS_P2;PMS_P1;PMS_P2;Temp;Humidity;BMP_temperature;BMP_pressure;BME280_temperature;BME280_humidity;BME280_pressure;Samples;Min_cycle;Max_cycle;Signal;HPM_P1;HPM_P2
2023/06/15 00:01:07;;;;;;;6.60;6.00;;;;;;;20.02;43.32;97320.97;5091446;28;20213;-69
2023/06/15 00:03:32;;;;;;;6.07;5.50;;;;;;;20.04;43.26;97329.53;5091166;28;20459;-69
2023/06/15 00:05:58;;;;;;;5.60;5.10;;;;;;;19.90;43.84;97323.44;5090149;28;20284;-69
2023/06/15 00:08:23;;;;;;;7.23;5.50;;;;;;;19.89;43.97;97332.44;5091467;28;20216;-69
2023/06/15 00:10:49;;;;;;;6.80;5.60;;;;;;;19.79;44.05;97330.19;5096965;28;20265;-69
2023/06/15 00:13:15;;;;;;;10.80;5.93;;;;;;;19.87;43.97;97334.47;5091567;28;20207;-69
2023/06/15 00:15:41;;;;;;;10.83;5.03;;;;;;;20.04;43.74;97334.84;5091200;28;20583;-69
2023/06/15 00:18:06;;;;;;;7.30;5.73;;;;;;;20.01;44.09;97329.13;5090573;28;20431;-69
2023/06/15 00:20:32;;;;;;;8.53;5.77;;;;;;;19.93;44.06;97335.50;5091038;28;20205;-69
2023/06/15 00:22:58;;;;;;;6.23;5.63;;;;;;;19.99;43.90;97337.31;5091096;28;20209;-69
2023/06/15 00:25:24;;;;;;;6.67;5.40;;;;;;;19.90;43.76;97338.59;5088598;28;20551;-70
2023/06/15 00:27:49;;;;;;;8.70;6.00;;;;;;;19.86;43.92;97340.00;5077569;28;20181;-68
2023/06/15 00:30:15;;;;;;;8.60;5.83;;;;;;;19.90;43.85;97342.06;5082661;28;20484;-68
2023/06/15 00:32:40;;;;;;;7.17;5.50;;;;;;;19.83;43.69;97343.06;5094203;28;20182;-70
2023/06/15 00:35:06;;;;;;;6.93;5.50;;;;;;;19.75;44.17;97339.63;5092712;28;20202;-69
2023/06/15 00:37:32;;;;;;;7.10;5.63;;;;;;;19.75;44.13;97342.28;5091268;28;20204;-68
2023/06/15 00:39:57;;;;;;;11.80;5.67;;;;;;;19.88;43.63;97341.44;5091260;28;20206;-70
2023/06/15 00:42:23;;;;;;;7.60;5.60;;;;;;;19.89;43.90;97347.59;5088956;28;20193;-69
2023/06/15 00:44:48;;;;;;;6.13;5.63;;;;;;;19.87;44.01;97344.31;5094495;28;20228;-67
2023/06/15 00:47:17;;;;;;;6.07;5.57;;;;;;;19.85;44.10;97335.69;5098608;28;20274;-69
2023/06/15 00:49:44;;;;;;;9.07;5.83;;;;;;;19.91;44.11;97345.53;5072166;28;20177;-70
2023/06/15 00:52:10;;;;;;;11.73;5.83;;;;;;;20.01;43.92;97350.41;5100647;28;20452;-69
2023/06/15 00:54:35;;;;;;;6.20;5.60;;;;;;;19.92;44.13;97347.16;5072691;28;20885;-69
2023/06/15 00:57:01;;;;;;;7.10;6.40;;;;;;;19.88;44.06;97346.75;5072494;28;20277;-69
2023/06/15 00:59:28;;;;;;;6.97;5.70;;;;;;;19.89;43.63;97351.06;5089239;28;20185;-69
2023/06/15 01:01:54;;;;;;;7.87;5.60;;;;;;;19.94;44.10;97351.25;5100826;28;20209;-67
2023/06/15 01:04:25;;;;;;;6.53;5.83;;;;;;;19.82;44.54;97349.41;5097898;28;20830;-68
2023/06/15 01:06:56;;;;;;;7.20;5.50;;;;;;;19.84;44.21;97350.84;5093498;28;20420;-67
2023/06/15 01:09:23;;;;;;;12.53;5.67;;;;;;;19.84;44.03;97355.34;5086348;28;20814;-68
2023/06/15 01:11:55;;;;;;;7.33;5.20;;;;;;;19.79;44.04;97348.78;5072382;28;20790;-69
2023/06/15 01:14:23;;;;;;;5.77;5.20;;;;;;;19.83;44.14;97343.06;5067444;28;20412;-68
2023/06/15 01:16:53;;;;;;;7.67;5.50;;;;;;;19.88;43.76;97337.97;5089976;28;20430;-68
2023/06/15 01:19:38;;;;;;;8.13;5.60;;;;;;;19.82;44.12;97346.75;5083688;28;20427;-70
2023/06/15 01:22:24;;;;;;;5.93;5.43;;;;;;;19.91;44.07;97343.69;5071433;28;20424;-69
2023/06/15 01:25:03;;;;;;;6.80;5.70;;;;;;;19.76;44.24;97343.06;5093709;28;20857;-69
2023/06/15 01:27:28;;;;;;;6.40;5.80;;;;;;;19.65;44.73;97340.03;5087564;28;20419;-69
2023/06/15 01:29:54;;;;;;;6.50;5.90;;;;;;;19.61;44.90;97336.16;5068613;28;20838;-69
2023/06/15 01:32:20;;;;;;;7.83;5.90;;;;;;;19.59;45.21;97337.38;5071554;28;20196;-68
2023/06/15 01:34:46;;;;;;;6.63;6.00;;;;;;;19.65;45.03;97347.22;5093552;28;20446;-68
2023/06/15 01:37:11;;;;;;;6.30;5.80;;;;;;;19.67;44.67;97339.81;5090086;28;20182;-71
2023/06/15 01:39:39;;;;;;;9.20;6.63;;;;;;;19.55;45.22;97339.66;5095298;28;20199;-69
2023/06/15 01:42:05;;;;;;;7.70;5.27;;;;;;;19.57;44.81;97347.41;5071966;28;20181;-69
2023/06/15 01:44:31;;;;;;;10.17;5.47;;;;;;;19.56;45.18;97354.56;5097094;28;20430;-69
2023/06/15 01:46:56;;;;;;;6.43;5.73;;;;;;;19.46;45.57;97344.34;5091357;28;20416;-69
2023/06/15 01:49:22;;;;;;;7.27;6.07;;;;;;;19.51;45.38;97340.28;5088478;28;20173;-69
2023/06/15 01:51:48;;;;;;;7.73;5.80;;;;;;;19.44;45.64;97349.06;5089548;28;20189;-69
2023/06/15 01:54:13;;;;;;;10.23;6.20;;;;;;;19.39;45.44;97346.22;5088427;28;20415;-69
2023/06/15 01:56:39;;;;;;;6.47;5.87;;;;;;;19.36;45.69;97343.13;5071710;28;20181;-69
2023/06/15 01:59:04;;;;;;;7.47;6.17;;;;;;;19.38;45.88;97344.56;5088566;28;20264;-70
2023/06/15 02:01:30;;;;;;;7.60;5.63;;;;;;;19.42;45.70;97343.13;5094415;28;20280;-69
2023/06/15 02:03:55;;;;;;;7.03;5.20;;;;;;;19.33;45.59;97344.34;5088564;28;20173;-70
2023/06/15 02:06:21;;;;;;;8.50;5.73;;;;;;;19.34;45.88;97343.34;5085214;28;20698;-69
2023/06/15 02:08:46;;;;;;;7.00;5.70;;;;;;;19.24;45.83;97335.78;5086920;28;20543;-68
2023/06/15 02:11:12;;;;;;;6.40;5.77;;;;;;;19.16;45.97;97341.31;5088447;28;20193;-70
2023/06/15 02:13:37;;;;;;;6.20;5.60;;;;;;;19.06;46.49;97344.34;5085922;28;20268;-69
2023/06/15 02:16:03;;;;;;;6.33;5.63;;;;;;;19.01;46.28;97337.00;5069416;28;20208;-69
2023/06/15 02:18:30;;;;;;;7.10;5.57;;;;;;;18.96;46.33;97346.59;5088819;28;20776;-69
2023/06/15 02:20:56;;;;;;;6.67;5.53;;;;;;;19.00;46.44;97345.19;5096774;28;20452;-69
2023/06/15 02:23:21;;;;;;;7.97;5.97;;;;;;;18.92;46.43;97345.31;5088931;28;21002;-69
2023/06/15 02:25:47;;;;;;;7.03;5.33;;;;;;;18.93;46.37;97339.00;5094129;28;20263;-68
2023/06/15 02:28:12;;;;;;;6.17;5.53;;;;;;;18.84;46.36;97347.16;5097344;28;20197;-70
2023/06/15 02:30:40;;;;;;;10.63;5.83;;;;;;;18.95;46.27;97344.97;5095808;28;20241;-70
2023/06/15 02:33:07;;;;;;;9.93;6.00;;;;;;;19.00;46.31;97350.50;5092468;28;20296;-68
2023/06/15 02:35:33;;;;;;;6.53;5.83;;;;;;;18.97;46.22;97345.56;5090351;28;20814;-68
2023/06/15 02:37:58;;;;;;;9.67;5.30;;;;;;;18.93;46.32;97347.78;5087968;28;20427;-71
2023/06/15 02:40:24;;;;;;;6.33;5.73;;;;;;;18.88;46.55;97351.06;5094906;28;20209;-68
2023/06/15 02:42:49;;;;;;;13.70;5.60;;;;;;;18.80;46.50;97351.22;5092866;28;20202;-68
2023/06/15 02:45:15;;;;;;;8.23;5.90;;;;;;;18.85;46.48;97348.78;5087233;28;20232;-70
2023/06/15 02:47:40;;;;;;;6.93;5.77;;;;;;;18.80;46.56;97351.22;5099924;28;20180;-70
2023/06/15 02:50:06;;;;;;;6.23;5.60;;;;;;;18.86;46.37;97350.44;5089309;28;20178;-70
2023/06/15 02:52:32;;;;;;;7.97;6.00;;;;;;;18.86;46.39;97350.44;5088578;28;20178;-69
2023/06/15 02:54:58;;;;;;;8.37;5.87;;;;;;;18.76;46.14;97347.38;5091601;28;20454;-69
2023/06/15 02:57:24;;;;;;;7.30;6.10;;;;;;;18.72;46.21;97349.56;5087036;28;20206;-69
2023/06/15 02:59:49;;;;;;;17.30;6.20;;;;;;;18.73;46.40;97345.09;5086896;28;20581;-69
2023/06/15 03:02:15;;;;;;;7.43;5.50;;;;;;;18.71;46.52;97349.78;5090683;28;20189;-69
2023/06/15 03:04:47;;;;;;;7.80;5.20;;;;;;;18.73;46.56;97355.72;5087573;28;20288;-69
2023/06/15 03:07:16;;;;;;;7.90;5.80;;;;;;;18.67;46.72;97357.34;5087892;28;20205;-67
2023/06/15 03:09:46;;;;;;;9.17;5.87;;;;;;;18.64;46.74;97356.94;5095069;28;20420;-69
2023/06/15 03:12:12;;;;;;;6.87;6.17;;;;;;;18.53;47.11;97363.63;5088368;28;20936;-68
2023/06/15 03:14:37;;;;;;;7.10;6.03;;;;;;;18.58;46.91;97363.84;5093072;28;20526;-69
2023/06/15 03:17:04;;;;;;;10.23;6.20;;;;;;;18.61;47.15;97365.28;5091345;28;20182;-68
2023/06/15 03:19:30;;;;;;;7.33;5.73;;;;;;;18.57;47.05;97368.34;5076515;28;20188;-68
2023/06/15 03:21:57;;;;;;;12.70;5.80;;;;;;;18.36;47.59;97371.94;5083981;28;20987;-69
2023/06/15 03:24:25;;;;;;;6.73;6.03;;;;;;;18.27;47.91;97371.28;5084223;28;20197;-70
2023/06/15 03:26:51;;;;;;;6.60;6.00;;;;;;;18.24;47.96;97366.38;5069643;28;20444;-69
2023/06/15 03:29:16;;;;;;;7.03;6.33;;;;;;;18.23;47.90;97364.75;5086723;28;20463;-68
2023/06/15 03:31:41;;;;;;;8.30;5.87;;;;;;;18.17;48.24;97381.44;5086525;28;20217;-69
2023/06/15 03:34:08;;;;;;;8.07;6.23;;;;;;;18.26;47.95;97376.78;5081099;28;20186;-70
2023/06/15 03:36:34;;;;;;;7.00;6.03;;;;;;;18.18;48.16;97377.75;5092032;28;20196;-69
2023/06/15 03:39:00;;;;;;;8.10;5.90;;;;;;;18.12;48.39;97378.56;5087949;28;20404;-68
2023/06/15 03:41:30;;;;;;;6.57;5.97;;;;;;;18.07;48.64;97380.97;5090179;28;20828;-69
2023/06/15 03:43:55;;;;;;;7.27;6.47;;;;;;;18.01;48.61;97379.13;5085908;28;20174;-69
2023/06/15 03:46:21;;;;;;;7.73;5.47;;;;;;;18.18;48.45;97380.41;5085782;28;20458;-67
2023/06/15 03:48:46;;;;;;;6.10;5.50;;;;;;;18.30;47.96;97382.50;5089692;28;20277;-69
2023/06/15 03:51:12;;;;;;;8.60;6.17;;;;;;;18.23;48.01;97385.97;5080309;28;20220;-70
2023/06/15 03:53:41;;;;;;;9.27;6.30;;;;;;;18.22;48.03;97380.84;5087153;28;20182;-68
2023/06/15 03:56:06;;;;;;;7.50;5.43;;;;;;;18.17;48.17;97384.09;5082464;28;20202;-69
2023/06/15 03:58:32;;;;;;;5.97;5.37;;;;;;;18.15;48.39;97390.59;5085364;28;20484;-68
2023/06/15 04:00:57;;;;;;;11.60;6.10;;;;;;;18.19;48.27;97397.16;5091532;28;20687;-68
2023/06/15 04:03:23;;;;;;;6.87;6.17;;;;;;;18.20;48.78;97389.00;5066607;28;20177;-69
2023/06/15 04:05:49;;;;;;;6.57;5.97;;;;;;;18.23;48.28;97393.91;5086369;28;20194;-69
2023/06/15 04:08:14;;;;;;;13.00;6.00;;;;;;;18.13;48.84;97403.25;5090220;28;20193;-68
2023/06/15 04:10:40;;;;;;;7.30;6.57;;;;;;;18.17;48.79;97405.31;5087000;28;20257;-68
2023/06/15 04:13:05;;;;;;;7.57;6.20;;;;;;;18.10;49.20;97407.09;5080743;28;20178;-68
2023/06/15 04:15:31;;;;;;;9.90;6.00;;;;;;;18.07;49.29;97418.09;5097807;28;20269;-69
2023/06/15 04:18:00;;;;;;;8.80;7.77;;;;;;;18.19;48.92;97408.59;5090686;28;20857;-67
2023/06/15 04:20:28;;;;;;;9.03;6.10;;;;;;;18.22;49.08;97415.31;5087834;28;20206;-68
2023/06/15 04:22:56;;;;;;;16.03;6.10;;;;;;;18.21;49.15;97411.06;5090770;28;20427;-68
2023/06/15 04:25:21;;;;;;;14.33;6.10;;;;;;;18.27;48.89;97412.91;5076502;28;20817;-67
2023/06/15 04:27:47;;;;;;;9.00;7.27;;;;;;;18.40;48.73;97418.28;5089888;28;20462;-67
2023/06/15 04:30:16;;;;;;;6.73;6.03;;;;;;;18.42;48.84;97423.38;5079544;28;20926;-67
2023/06/15 04:32:43;;;;;;;6.83;5.90;;;;;;;18.49;49.04;97426.91;5090446;28;20192;-70
2023/06/15 04:35:08;;;;;;;8.93;6.40;;;;;;;18.65;48.94;97430.22;5089744;28;20820;-69
2023/06/15 04:37:34;;;;;;;8.50;6.43;;;;;;;18.70;48.85;97427.78;5094753;28;20412;-68
2023/06/15 04:39:59;;;;;;;10.90;6.20;;;;;;;18.76;48.63;97424.34;5089618;28;20273;-68
2023/06/15 04:42:26;;;;;;;9.93;6.40;;;;;;;18.86;48.75;97426.59;5089111;28;20196;-68
2023/06/15 04:44:52;;;;;;;12.33;6.40;;;;;;;18.86;48.22;97424.78;5093809;28;20757;-68
2023/06/15 04:47:18;;;;;;;7.60;6.00;;;;;;;18.88;47.84;97433.38;5062741;28;20511;-68
2023/06/15 04:49:44;;;;;;;6.13;5.50;;;;;;;18.98;47.64;97429.53;5090934;28;20790;-68
2023/06/15 04:52:10;;;;;;;11.83;5.93;;;;;;;19.07;47.40;97425.66;5069263;28;20551;-69
2023/06/15 04:54:35;;;;;;;7.77;5.63;;;;;;;19.21;47.22;97426.53;5089492;28;20243;-68
2023/06/15 04:57:01;;;;;;;9.50;5.97;;;;;;;19.37;47.48;97427.97;5093194;28;20418;-69
2023/06/15 04:59:27;;;;;;;8.83;5.40;;;;;;;19.53;47.49;97429.41;5090967;28;20253;-69
2023/06/15 05:01:52;;;;;;;9.40;5.90;;;;;;;19.68;46.88;97436.34;5088351;28;20297;-69
2023/06/15 05:04:20;;;;;;;8.50;6.20;;;;;;;19.82;46.75;97434.50;5088059;28;20498;-68
2023/06/15 05:06:45;;;;;;;7.23;6.20;;;;;;;19.97;45.96;97429.81;5083958;28;20272;-70
2023/06/15 05:09:11;;;;;;;7.47;5.23;;;;;;;20.09;45.64;97438.78;5089005;28;20515;-69
2023/06/15 05:11:36;;;;;;;6.97;5.80;;;;;;;20.19;44.73;97437.53;5089730;28;20202;-68
2023/06/15 05:14:03;;;;;;;9.00;5.53;;;;;;;20.31;44.95;97445.69;5071651;28;20241;-70
2023/06/15 05:16:29;;;;;;;7.47;5.20;;;;;;;20.46;44.74;97445.44;5091301;28;20808;-68
2023/06/15 05:18:54;;;;;;;8.07;5.73;;;;;;;20.56;43.77;97443.16;5094423;28;20420;-68
2023/06/15 05:21:20;;;;;;;8.47;5.20;;;;;;;20.63;43.08;97427.16;5093361;28;20215;-68
2023/06/15 05:23:45;;;;;;;9.00;6.30;;;;;;;20.80;43.36;97438.16;5088515;28;20204;-69
2023/06/15 05:26:11;;;;;;;6.87;5.33;;;;;;;20.94;43.01;97439.72;5074562;28;20301;-69
2023/06/15 05:28:37;;;;;;;5.80;5.20;;;;;;;21.08;42.41;97442.31;5096149;28;20198;-70
2023/06/15 05:31:02;;;;;;;7.00;5.87;;;;;;;21.20;41.67;97437.94;5088867;28;20197;-69
2023/06/15 05:33:27;;;;;;;5.73;4.90;;;;;;;21.35;41.58;97442.16;5053683;28;20177;-69
2023/06/15 05:35:53;;;;;;;6.83;5.27;;;;;;;21.47;41.27;97440.41;5086932;28;20204;-70
2023/06/15 05:38:20;;;;;;;7.77;5.17;;;;;;;21.60;40.41;97443.03;5088908;28;20658;-69
2023/06/15 05:40:45;;;;;;;7.17;5.20;;;;;;;21.76;40.45;97440.84;5089032;28;20233;-69
2023/06/15 05:43:11;;;;;;;7.80;5.07;;;;;;;21.86;40.09;97438.50;5088389;28;20530;-68
2023/06/15 05:45:36;;;;;;;9.60;5.17;;;;;;;22.01;40.28;97448.00;5073516;28;20269;-69
2023/06/15 05:48:02;;;;;;;5.30;4.70;;;;;;;22.12;39.38;97449.94;5093635;28;20614;-67
2023/06/15 05:50:28;;;;;;;6.20;5.60;;;;;;;22.24;39.67;97445.50;5089947;28;20185;-69
2023/06/15 05:52:53;;;;;;;8.40;5.80;;;;;;;22.36;39.31;97440.25;5089331;28;20273;-68
2023/06/15 05:55:18;;;;;;;13.23;5.73;;;;;;;22.46;38.62;97447.75;5098911;28;20711;-69
2023/06/15 05:57:44;;;;;;;9.03;5.30;;;;;;;22.53;38.60;97445.84;5088649;28;20596;-70
2023/06/15 06:00:10;;;;;;;6.70;5.17;;;;;;;22.65;38.85;97455.78;5088272;28;20233;-69
2023/06/15 06:02:35;;;;;;;8.43;5.50;;;;;;;22.71;38.38;97446.84;5089685;28;20300;-70
2023/06/15 06:05:01;;;;;;;13.90;5.20;;;;;;;22.79;37.74;97454.56;5092608;28;20581;-68
2023/06/15 06:07:26;;;;;;;7.00;5.53;;;;;;;22.84;37.98;97446.69;5088174;28;20276;-68
2023/06/15 06:09:52;;;;;;;6.87;5.43;;;;;;;22.90;37.74;97454.84;5093619;28;20679;-67
2023/06/15 06:12:17;;;;;;;8.80;5.73;;;;;;;22.95;37.90;97458.47;5087564;28;20193;-70
2023/06/15 06:14:43;;;;;;;8.50;5.43;;;;;;;23.02;37.52;97466.41;5088571;28;20197;-69
2023/06/15 06:17:08;;;;;;;6.43;5.40;;;;;;;23.08;37.50;97462.81;5088864;28;20186;-69
2023/06/15 06:19:33;;;;;;;6.70;5.23;;;;;;;23.15;37.63;97463.56;5090942;28;20696;-68
2023/06/15 06:21:59;;;;;;;7.47;5.70;;;;;;;23.22;37.11;97463.50;5088647;28;20563;-69
2023/06/15 06:24:25;;;;;;;7.90;5.10;;;;;;;23.31;36.78;97464.78;5089205;28;20274;-69
2023/06/15 06:26:50;;;;;;;10.77;5.30;;;;;;;23.38;36.82;97470.03;5098623;28;20180;-68
2023/06/15 06:29:15;;;;;;;6.33;5.07;;;;;;;23.43;36.71;97464.84;5095990;28;20189;-70
2023/06/15 06:31:42;;;;;;;6.70;6.00;;;;;;;23.48;36.31;97469.50;5085141;28;20706;-68
2023/06/15 06:34:08;;;;;;;7.93;5.40;;;;;;;23.56;36.06;97463.00;5087306;28;20569;-69
2023/06/15 06:36:34;;;;;;;7.03;5.13;;;;;;;23.65;36.05;97461.59;5091720;28;20439;-67
2023/06/15 06:39:00;;;;;;;7.53;5.47;;;;;;;23.76;36.14;97474.19;5082696;28;20891;-69
2023/06/15 06:41:25;;;;;;;6.63;4.90;;;;;;;23.85;35.71;97471.97;5082653;28;20228;-68
2023/06/15 06:43:52;;;;;;;7.33;5.40;;;;;;;23.98;35.79;97479.00;5088476;28;20651;-68
2023/06/15 06:46:17;;;;;;;7.77;4.60;;;;;;;24.05;35.16;97471.69;5087148;28;20233;-69
2023/06/15 06:48:43;;;;;;;10.93;5.57;;;;;;;24.18;35.55;97472.50;5087786;28;20839;-68
2023/06/15 06:51:08;;;;;;;14.43;4.90;;;;;;;24.29;35.65;97477.00;5095994;28;20199;-68
2023/06/15 06:53:33;;;;;;;7.53;4.80;;;;;;;24.42;34.80;97472.47;5096603;28;20319;-68
2023/06/15 06:55:59;;;;;;;10.40;5.10;;;;;;;24.51;34.68;97477.19;5069239;28;20197;-69
2023/06/15 06:58:24;;;;;;;5.47;4.97;;;;;;;24.62;34.49;97474.75;5091367;28;20245;-68
2023/06/15 07:00:50;;;;;;;12.33;4.80;;;;;;;24.72;34.28;97474.16;5095664;28;20309;-68
2023/06/15 07:03:15;;;;;;;5.10;4.50;;;;;;;24.81;33.70;97484.28;5095800;28;20189;-68
2023/06/15 07:05:41;;;;;;;6.13;5.00;;;;;;;24.85;34.12;97484.59;5069233;28;20201;-68
2023/06/15 07:08:07;;;;;;;5.00;4.50;;;;;;;24.96;33.72;97488.31;5094499;28;20181;-68
2023/06/15 07:10:32;;;;;;;10.13;5.30;;;;;;;25.09;33.77;97489.88;5086149;28;20801;-68
2023/06/15 07:12:58;;;;;;;6.10;5.40;;;;;;;25.14;33.13;97481.94;5086737;28;20216;-69
2023/06/15 07:15:26;;;;;;;8.80;4.73;;;;;;;25.26;33.00;97496.13;5090261;28;20783;-69
2023/06/15 07:17:51;;;;;;;7.83;4.80;;;;;;;25.38;33.08;97481.84;5077931;28;20422;-69
2023/06/15 07:20:17;;;;;;;6.43;4.63;;;;;;;25.46;32.71;97484.13;5085709;28;20447;-69
2023/06/15 07:22:43;;;;;;;4.97;4.47;;;;;;;25.58;32.80;97492.94;5078286;28;20238;-68
2023/06/15 07:25:08;;;;;;;8.03;5.30;;;;;;;25.68;32.68;97480.75;5094020;28;20270;-70
2023/06/15 07:27:34;;;;;;;9.50;4.80;;;;;;;25.71;32.11;97491.00;5089358;28;20685;-69
2023/06/15 07:29:59;;;;;;;6.40;4.60;;;;;;;25.79;32.28;97487.91;5088000;28;20187;-68
2023/06/15 07:32:25;;;;;;;9.03;5.53;;;;;;;25.89;32.47;97480.03;5087458;28;20197;-68
2023/06/15 07:34:50;;;;;;;7.80;5.23;;;;;;;25.97;31.88;97478.81;5087410;28;20280;-68
2023/06/15 07:37:16;;;;;;;10.03;5.07;;;;;;;26.03;31.54;97477.00;5083931;28;20327;-68
2023/06/15 07:39:41;;;;;;;7.70;5.43;;;;;;;26.06;31.42;97481.88;5091124;28;20660;-68
2023/06/15 07:42:07;;;;;;;10.50;4.80;;;;;;;26.11;31.42;97473.91;5083559;28;20205;-69
2023/06/15 07:44:32;;;;;;;11.83;4.53;;;;;;;26.21;31.37;97476.75;5086902;28;20185;-68
2023/06/15 07:46:58;;;;;;;10.60;5.00;;;;;;;26.27;31.18;97483.03;5089694;28;20185;-68
2023/06/15 07:49:23;;;;;;;5.20;4.80;;;;;;;26.31;31.27;97483.34;5091930;28;20253;-69
2023/06/15 07:51:48;;;;;;;11.87;4.90;;;;;;;26.41;31.10;97479.97;5081016;28;20201;-68
2023/06/15 07:54:14;;;;;;;6.97;4.97;;;;;;;26.48;30.76;97481.41;5091035;28;20268;-68
2023/06/15 07:56:39;;;;;;;5.03;4.37;;;;;;;26.58;30.75;97477.25;5094597;28;20225;-69
2023/06/15 07:59:05;;;;;;;10.03;5.10;;;;;;;26.70;30.51;97486.00;5095513;28;20282;-68
2023/06/15 08:01:30;;;;;;;10.37;4.90;;;;;;;26.75;31.03;97486.03;5097477;28;20292;-68
2023/06/15 08:03:56;;;;;;;10.03;5.47;;;;;;;26.85;30.44;97485.41;5094140;28;20260;-68
2023/06/15 08:06:21;;;;;;;7.13;5.00;;;;;;;26.81;29.95;97487.78;5089988;28;20870;-68
2023/06/15 08:08:47;;;;;;;8.10;5.10;;;;;;;26.85;30.18;97477.31;5090934;28;20292;-68
2023/06/15 08:11:13;;;;;;;6.20;4.80;;;;;;;26.98;30.73;97482.31;5091364;28;20318;-68
2023/06/15 08:13:38;;;;;;;4.57;4.17;;;;;;;27.14;30.42;97480.59;5099607;28;20191;-68
2023/06/15 08:16:05;;;;;;;5.40;4.37;;;;;;;27.28;30.38;97474.81;5095023;28;20439;-68
2023/06/15 08:18:31;;;;;;;8.03;5.20;;;;;;;27.40;29.99;97472.78;5091261;28;20252;-68
2023/06/15 08:20:57;;;;;;;4.63;4.23;;;;;;;27.51;29.92;97472.91;5094508;28;20486;-68
2023/06/15 08:23:22;;;;;;;6.47;4.27;;;;;;;27.61;29.89;97472.19;5090378;28;20512;-68
2023/06/15 08:25:48;;;;;;;4.57;4.17;;;;;;;27.69;29.43;97471.69;5090471;28;20197;-67
2023/06/15 08:28:13;;;;;;;5.47;4.80;;;;;;;27.80;29.24;97475.28;5093160;28;20715;-69
2023/06/15 08:30:39;;;;;;;12.57;4.80;;;;;;;27.88;29.17;97477.50;5090365;28;20820;-69
2023/06/15 08:33:05;;;;;;;6.23;4.73;;;;;;;27.97;29.21;97475.97;5092344;28;20269;-68
2023/06/15 08:35:31;;;;;;;7.30;4.53;;;;;;;28.05;29.30;97475.47;5090843;28;20197;-67
2023/06/15 08:37:56;;;;;;;11.60;4.50;;;;;;;28.16;29.03;97472.88;5090632;28;20423;-68
2023/06/15 08:40:22;;;;;;;6.57;4.87;;;;;;;28.31;28.92;97470.28;5090546;28;20300;-69
2023/06/15 08:42:49;;;;;;;5.63;4.67;;;;;;;28.42;29.02;97468.41;5092120;28;20177;-69
2023/06/15 08:45:15;;;;;;;7.77;4.30;;;;;;;28.54;28.74;97470.91;5093697;28;20216;-68
2023/06/15 08:47:40;;;;;;;7.77;4.20;;;;;;;28.59;28.00;97479.03;5075081;28;20956;-68
2023/06/15 08:50:06;;;;;;;5.30;4.27;;;;;;;28.70;27.91;97476.38;5073099;28;20189;-69
2023/06/15 08:52:35;;;;;;;18.90;4.33;;;;;;;28.76;27.59;97475.34;5080433;28;20291;-69
2023/06/15 08:55:02;;;;;;;6.77;3.67;;;;;;;28.80;27.46;97479.13;5089362;28;20197;-68
2023/06/15 08:57:28;;;;;;;12.37;4.40;;;;;;;28.93;27.18;97478.66;5088894;28;20467;-69
2023/06/15 08:59:55;;;;;;;4.77;4.37;;;;;;;29.04;27.02;97470.56;5089630;28;20452;-69
2023/06/15 09:02:22;;;;;;;6.40;3.93;;;;;;;29.06;27.57;97477.31;5095605;28;20438;-68
2023/06/15 09:04:51;;;;;;;5.10;4.60;;;;;;;29.00;27.35;97474.88;5090328;28;20455;-69
2023/06/15 09:07:20;;;;;;;4.60;4.20;;;;;;;28.93;27.53;97465.16;5071626;28;20440;-68
2023/06/15 09:10:15;;;;;;;4.60;4.20;;;;;;;29.07;27.19;97472.75;5082028;28;20435;-69
2023/06/15 09:12:55;;;;;;;9.63;4.23;;;;;;;29.22;27.73;97470.09;5090597;28;20420;-70
2023/06/15 09:15:27;;;;;;;4.77;4.33;;;;;;;29.38;27.26;97468.25;5079024;28;20454;-69
2023/06/15 09:17:59;;;;;;;10.57;4.40;;;;;;;29.53;26.86;97466.63;5089494;28;20511;-68
2023/06/15 09:20:26;;;;;;;4.90;4.50;;;;;;;29.56;26.47;97472.31;5088335;28;20455;-68
2023/06/15 09:22:52;;;;;;;9.13;4.37;;;;;;;29.64;26.73;97470.13;5087574;28;20426;-68
2023/06/15 09:25:19;;;;;;;7.10;3.90;;;;;;;29.67;26.24;97483.94;5073686;28;20540;-68
2023/06/15 09:27:56;;;;;;;12.10;4.70;;;;;;;29.72;26.22;97472.31;5089192;28;20634;-68
2023/06/15 09:30:23;;;;;;;8.03;3.80;;;;;;;29.82;25.88;97464.19;5093593;28;20833;-67
2023/06/15 09:32:49;;;;;;;8.77;3.97;;;;;;;29.90;25.46;97462.84;5075384;28;20446;-68
2023/06/15 09:35:14;;;;;;;4.53;3.60;;;;;;;30.02;25.76;97463.41;5089735;28;20482;-68
2023/06/15 09:37:40;;;;;;;6.03;4.63;;;;;;;30.10;26.24;97470.13;5089733;28;20193;-68
2023/06/15 09:40:10;;;;;;;4.83;3.70;;;;;;;30.15;24.99;97463.91;5089338;28;20617;-68
2023/06/15 09:42:38;;;;;;;4.53;3.80;;;;;;;30.06;24.49;97465.53;5069386;28;20562;-69
2023/06/15 09:45:05;;;;;;;4.20;3.80;;;;;;;30.27;24.31;97464.41;5088826;28;20448;-69
2023/06/15 09:47:31;;;;;;;4.17;3.70;;;;;;;30.40;24.08;97459.50;5090054;28;20428;-67
2023/06/15 09:49:58;;;;;;;4.60;3.90;;;;;;;30.63;24.65;97466.19;5095287;28;20519;-68
2023/06/15 09:52:23;;;;;;;4.10;3.70;;;;;;;30.61;23.87;97463.00;5094535;28;20817;-67
2023/06/15 09:54:49;;;;;;;8.00;3.80;;;;;;;30.71;24.05;97460.25;5090703;28;20443;-68
2023/06/15 09:57:18;;;;;;;3.70;3.40;;;;;;;30.78;23.32;97463.44;5070797;28;20562;-68
2023/06/15 09:59:44;;;;;;;6.27;3.60;;;;;;;30.84;23.33;97466.13;5097011;28;20192;-68
2023/06/15 10:02:11;;;;;;;3.30;3.00;;;;;;;31.12;23.17;97469.22;5088997;28;20462;-68
2023/06/15 10:04:40;;;;;;;4.77;4.00;;;;;;;31.21;22.69;97459.44;5085165;28;20439;-68
2023/06/15 10:07:06;;;;;;;6.67;3.43;;;;;;;31.01;22.86;97465.75;5097168;28;20982;-69
2023/06/15 10:09:46;;;;;;;3.57;3.27;;;;;;;30.96;23.16;97463.91;5082239;28;20419;-68
2023/06/15 10:12:16;;;;;;;4.17;3.77;;;;;;;30.64;23.40;97467.81;5094339;28;20484;-68
2023/06/15 10:14:47;;;;;;;5.00;3.67;;;;;;;30.33;23.25;97470.63;5090652;28;20450;-70
2023/06/15 10:17:16;;;;;;;5.10;4.00;;;;;;;30.00;23.60;97478.22;5092715;28;20427;-69
2023/06/15 10:19:43;;;;;;;5.20;3.00;;;;;;;30.24;23.48;97469.56;5061873;28;20424;-68
2023/06/15 10:22:17;;;;;;;4.50;3.40;;;;;;;30.47;23.03;97458.13;5088415;28;20487;-69
2023/06/15 10:24:43;;;;;;;3.97;3.57;;;;;;;30.67;22.41;97463.78;5090344;28;20423;-68
2023/06/15 10:27:09;;;;;;;4.23;3.20;;;;;;;30.86;22.15;97466.66;5077402;28;20432;-68
2023/06/15 10:29:40;;;;;;;4.80;3.27;;;;;;;31.08;22.26;97461.66;5088306;28;20499;-68
2023/06/15 10:32:14;;;;;;;5.60;3.50;;;;;;;30.96;22.44;97463.91;5094527;28;20233;-68
2023/06/15 10:34:50;;;;;;;3.77;3.37;;;;;;;30.65;22.62;97464.03;5097146;28;20451;-68
2023/06/15 10:37:35;;;;;;;3.50;3.20;;;;;;;30.46;22.37;97458.41;5089640;28;20808;-68
2023/06/15 10:40:10;;;;;;;3.50;3.20;;;;;;;30.65;22.65;97455.91;5073723;28;20427;-67
2023/06/15 10:42:43;;;;;;;4.30;3.30;;;;;;;30.73;22.05;97452.66;5070358;28;20423;-69
2023/06/15 10:45:31;;;;;;;4.10;3.10;;;;;;;30.91;21.95;97453.09;5096263;28;21000;-68
2023/06/15 10:48:01;;;;;;;4.10;3.80;;;;;;;30.99;22.05;97447.13;5082647;28;20422;-68
2023/06/15 10:50:29;;;;;;;8.80;3.33;;;;;;;31.26;21.64;97453.97;5088011;28;20420;-69
2023/06/15 10:52:55;;;;;;;4.30;3.10;;;;;;;31.43;21.37;97459.03;5087890;28;20424;-68
2023/06/15 10:55:25;;;;;;;3.20;2.90;;;;;;;31.60;20.07;97460.50;5087683;28;20446;-68
2023/06/15 10:58:16;;;;;;;4.73;2.93;;;;;;;31.67;20.65;97450.16;5069222;28;20182;-68
2023/06/15 11:00:50;;;;;;;3.33;3.03;;;;;;;31.90;20.90;97455.94;5087445;28;20870;-69
2023/06/15 11:03:25;;;;;;;3.37;2.80;;;;;;;32.05;19.36;97444.97;5067380;28;20443;-69
2023/06/15 11:06:08;;;;;;;8.50;3.33;;;;;;;32.09;19.89;97448.69;5097906;28;20449;-68
2023/06/15 11:08:46;;;;;;;6.40;2.70;;;;;;;32.27;19.66;97458.00;5071762;28;20435;-68
2023/06/15 11:11:12;;;;;;;10.80;3.43;;;;;;;32.39;19.85;97448.66;5088740;28;20422;-69
2023/06/15 11:14:03;;;;;;;4.67;3.17;;;;;;;32.49;20.47;97443.16;5089333;28;20430;-68
2023/06/15 11:16:30;;;;;;;3.43;3.10;;;;;;;32.70;20.38;97448.31;5084824;28;20209;-68
2023/06/15 11:19:19;;;;;;;6.20;2.70;;;;;;;32.72;20.79;97449.63;5088061;28;20420;-68
2023/06/15 11:21:59;;;;;;;5.40;3.00;;;;;;;32.76;20.58;97445.22;5088414;28;20812;-68
2023/06/15 11:24:26;;;;;;;3.50;3.20;;;;;;;32.70;21.06;97445.59;5091269;28;20419;-68
2023/06/15 11:26:52;;;;;;;3.63;3.00;;;;;;;32.60;21.29;97444.63;5089483;28;20471;-68
2023/06/15 11:29:25;;;;;;;3.90;3.50;;;;;;;32.42;21.11;97448.09;5091728;28;20482;-67
2023/06/15 11:31:53;;;;;;;4.33;3.43;;;;;;;32.05;21.55;97449.56;5082891;28;20407;-67